Time;durP1;ratioP1;P1;durP2;ratioP2;P2;SDS_P1;SDS_P2;PMS_P1;PMS_P2;Temp;Humidity;BMP_temperature;BMP_pressure;BME280_temperature;BME280_humidity;BME280_pressure;Samples;Min_cycle;Max_cycle;Signal;HPM_P1;HPM_P2
2023/08/20 00:00:42;;;;;;;;;;;;;;;26.76;100.00;99873.41;4994694;28;19996;-88
2023/08/20 00:03:12;;;;;;;;;;;;;;;26.79;100.00;99872.97;4995097;28;19953;-87
2023/08/20 00:05:38;;;;;;;;;;;;;;;26.71;100.00;99878.75;4993521;28;19965;-88
2023/08/20 00:08:04;;;;;;;;;;;;;;;26.85;100.00;99877.41;4994074;28;19944;-86
2023/08/20 00:10:29;;;;;;;;;;;;;;;26.88;100.00;99874.25;4993640;28;19925;-86
2023/08/20 00:12:55;;;;;;;;;;;;;;;26.72;100.00;99872.28;4994645;28;20017;-87
2023/08/20 00:15:22;;;;;;;;;;;;;;;26.63;100.00;99874.50;4995094;28;19922;-88
2023/08/20 00:17:47;;;;;;;;;;;;;;;26.50;100.00;99869.41;4994659;28;19922;-89
2023/08/20 00:20:13;;;;;;;;;;;;;;;26.45;100.00;99872.78;4994979;28;19929;-89
2023/08/20 00:22:40;;;;;;;;;;;;;;;26.48;100.00;99880.44;4993700;28;21384;-88
2023/08/20 00:25:05;;;;;;;;;;;;;;;26.58;100.00;99881.72;4995280;28;20375;-89
2023/08/20 00:27:31;;;;;;;;;;;;;;;26.59;100.00;99872.53;4994354;28;19948;-89
2023/08/20 00:29:57;;;;;;;;;;;;;;;26.53;100.00;99878.91;4995337;28;19918;-90
2023/08/20 00:32:23;;;;;;;;;;;;;;;26.48;100.00;99877.75;4993534;28;20117;-90
2023/08/20 00:34:48;;;;;;;;;;;;;;;26.44;100.00;99876.59;4995302;28;20834;-90
2023/08/20 00:37:13;;;;;;;;;;;;;;;26.43;100.00;99880.34;4993994;28;19929;-90
2023/08/20 00:39:39;;;;;;;;;;;;;;;26.49;100.00;99882.09;5001968;28;20286;-88
2023/08/20 00:42:05;;;;;;;;;;;;;;;26.46;100.00;99882.56;4987049;28;19926;-88
2023/08/20 00:44:30;;;;;;;;;;;;;;;26.49;100.00;99884.81;4985964;28;19926;-89
2023/08/20 00:46:55;;;;;;;;;;;;;;;26.59;100.00;99896.88;4997860;28;19945;-86
2023/08/20 00:49:21;;;;;;;;;;;;;;;26.67;100.00;99891.13;5023213;28;19992;-87
2023/08/20 00:51:47;;;;;;;;;;;;;;;26.71;100.00;99886.88;4983508;28;20430;-85
2023/08/20 00:54:12;;;;;;;;;;;;;;;26.80;100.00;99885.44;4986267;28;19922;-87
2023/08/20 00:56:38;;;;;;;;;;;;;;;26.85;100.00;99882.81;4985646;28;19922;-86
2023/08/20 00:59:05;;;;;;;;;;;;;;;26.87;100.00;99881.50;4990010;28;19948;-86
2023/08/20 01:01:30;;;;;;;;;;;;;;;26.84;100.00;99886.59;4992025;28;19926;-87
2023/08/20 01:03:56;;;;;;;;;;;;;;;26.76;100.00;99887.78;4990456;28;19922;-86
2023/08/20 01:06:27;;;;;;;;;;;;;;;26.76;100.00;99890.50;4994495;28;19926;-88
2023/08/20 01:09:02;;;;;;;;;;;;;;;26.76;100.00;99900.50;4992276;28;19925;-88
2023/08/20 01:11:30;;;;;;;;;;;;;;;26.81;100.00;99896.00;4994730;28;20374;-88
2023/08/20 01:13:55;;;;;;;;;;;;;;;26.83;100.00;99895.78;4994420;28;19922;-88
2023/08/20 01:16:21;;;;;;;;;;;;;;;26.81;100.00;99903.31;4993390;28;20405;-88
2023/08/20 01:18:47;;;;;;;;;;;;;;;26.86;100.00;99896.09;4994170;28;19922;-87
2023/08/20 01:21:35;;;;;;;;;;;;;;;26.85;100.00;99907.19;4994096;28;20426;-88
2023/08/20 01:24:04;;;;;;;;;;;;;;;26.77;100.00;99896.72;4992325;28;20370;-88
2023/08/20 01:26:36;;;;;;;;;;;;;;;26.74;100.00;99894.53;4992658;28;19932;-89
2023/08/20 01:29:02;;;;;;;;;;;;;;;26.74;100.00;99906.13;4993913;28;19965;-88
2023/08/20 01:31:28;;;;;;;;;;;;;;;26.74;100.00;99902.63;4992508;28;19921;-87
2023/08/20 01:33:54;;;;;;;;;;;;;;;26.72;100.00;99905.59;4992545;28;19995;-88
2023/08/20 01:36:20;;;;;;;;;;;;;;;26.66;100.00;99900.28;4992532;28;19929;-87
2023/08/20 01:38:45;;;;;;;;;;;;;;;26.51;100.00;99908.09;4993111;28;19921;-87
2023/08/20 01:41:11;;;;;;;;;;;;;;;26.41;100.00;99904.09;4993373;28;19929;-87
2023/08/20 01:43:36;;;;;;;;;;;;;;;26.34;100.00;99908.81;4993062;28;20312;-86
2023/08/20 01:46:01;;;;;;;;;;;;;;;26.35;100.00;99910.47;4993748;28;19926;-87
2023/08/20 01:48:27;;;;;;;;;;;;;;;26.36;100.00;99916.69;4991739;28;20306;-87
2023/08/20 01:50:52;;;;;;;;;;;;;;;26.38;100.00;99915.41;4993333;28;19933;-87
2023/08/20 01:53:17;;;;;;;;;;;;;;;26.29;100.00;99922.22;4993257;28;19922;-88
2023/08/20 01:55:43;;;;;;;;;;;;;;;26.25;100.00;99912.94;4991907;28;20032;-88
2023/08/20 01:58:09;;;;;;;;;;;;;;;26.29;100.00;99916.81;4994485;28;19981;-85
2023/08/20 02:00:34;;;;;;;;;;;;;;;26.28;100.00;99920.56;4992987;28;20418;-86
2023/08/20 02:03:00;;;;;;;;;;;;;;;26.27;100.00;99913.50;4994159;28;19932;-84
2023/08/20 02:05:25;;;;;;;;;;;;;;;26.31;100.00;99914.72;4993911;28;19953;-86
2023/08/20 02:07:50;;;;;;;;;;;;;;;26.34;100.00;99922.34;4992773;28;19921;-87
2023/08/20 02:10:16;;;;;;;;;;;;;;;26.31;100.00;99920.13;4993029;28;19922;-87
2023/08/20 02:12:41;;;;;;;;;;;;;;;26.35;100.00;99920.47;4990995;28;20498;-86
2023/08/20 02:15:07;;;;;;;;;;;;;;;26.30;100.00;99929.28;4991150;28;19988;-87
2023/08/20 02:17:35;;;;;;;;;;;;;;;26.33;100.00;99922.59;4992353;28;19921;-87
2023/08/20 02:20:00;;;;;;;;;;;;;;;26.30;100.00;99928.47;4992712;28;19929;-88
2023/08/20 02:22:29;;;;;;;;;;;;;;;26.26;100.00;99925.41;4991226;28;19922;-87
2023/08/20 02:24:54;;;;;;;;;;;;;;;26.24;100.00;99930.22;4991664;28;20012;-89
2023/08/20 02:27:19;;;;;;;;;;;;;;;26.28;100.00;99928.69;4993030;28;20383;-87
2023/08/20 02:29:45;;;;;;;;;;;;;;;26.30;100.00;99932.00;4992310;28;19926;-88
2023/08/20 02:32:14;;;;;;;;;;;;;;;26.29;100.00;99932.22;4993179;28;19922;-87
2023/08/20 02:34:39;;;;;;;;;;;;;;;26.31;100.00;99927.41;4992355;28;20052;-88
2023/08/20 02:37:04;;;;;;;;;;;;;;;26.30;100.00;99934.69;4991554;28;19921;-87
2023/08/20 02:39:31;;;;;;;;;;;;;;;26.28;100.00;99925.97;4992169;28;19960;-87
2023/08/20 02:41:56;;;;;;;;;;;;;;;26.31;100.00;99930.13;4993220;28;20379;-86
2023/08/20 02:44:22;;;;;;;;;;;;;;;26.32;100.00;99927.19;4991373;28;19928;-86
2023/08/20 02:46:47;;;;;;;;;;;;;;;26.30;100.00;99929.28;4991989;28;20025;-87
2023/08/20 02:49:14;;;;;;;;;;;;;;;26.33;100.00;99920.69;4993081;28;19930;-89
2023/08/20 02:51:41;;;;;;;;;;;;;;;26.31;100.00;99925.53;4990841;28;20103;-82
2023/08/20 02:54:07;;;;;;;;;;;;;;;26.26;100.00;99925.41;4997862;28;19922;-89
2023/08/20 02:56:32;;;;;;;;;;;;;;;26.20;100.00;99923.63;5002503;28;19983;-88
2023/08/20 02:58:57;;;;;;;;;;;;;;;26.14;100.00;99935.38;5008187;28;20019;-88
2023/08/20 03:01:23;;;;;;;;;;;;;;;26.12;100.00;99929.38;5015872;28;19923;-88
2023/08/20 03:03:49;;;;;;;;;;;;;;;26.09;100.00;99929.84;4982776;28;20457;-88
2023/08/20 03:06:14;;;;;;;;;;;;;;;26.08;100.00;99941.72;5038623;23;19985;-71
2023/08/20 03:08:40;;;;;;;;;;;;;;;26.10;100.00;99928.78;4990155;28;19929;-72
2023/08/20 03:11:05;;;;;;;;;;;;;;;26.10;100.00;99929.59;4991239;28;20394;-72
2023/08/20 03:13:30;;;;;;;;;;;;;;;26.08;100.00;99937.16;4989394;28;20354;-72
2023/08/20 03:15:56;;;;;;;;;;;;;;;26.10;100.00;99934.19;4991058;28;19921;-71
2023/08/20 03:18:21;;;;;;;;;;;;;;;26.07;100.00;99934.66;4989644;28;19928;-72
2023/08/20 03:20:47;;;;;;;;;;;;;;;26.09;100.00;99932.56;4990590;28;20405;-73
2023/08/20 03:23:12;;;;;;;;;;;;;;;26.06;100.00;99935.72;4990049;28;19926;-72
2023/08/20 03:25:38;;;;;;;;;;;;;;;26.06;100.00;99938.41;4989336;28;19922;-72
2023/08/20 03:28:03;;;;;;;;;;;;;;;26.03;100.00;99944.31;4989725;28;19926;-72
2023/08/20 03:30:29;;;;;;;;;;;;;;;25.96;100.00;99938.19;4990714;28;19921;-71
2023/08/20 03:32:54;;;;;;;;;;;;;;;25.90;100.00;99939.13;4991020;28;19975;-73
2023/08/20 03:35:20;;;;;;;;;;;;;;;25.91;100.00;99936.19;4993267;28;19922;-72
2023/08/20 03:37:45;;;;;;;;;;;;;;;25.86;100.00;99932.53;4993368;28;20033;-72
2023/08/20 03:40:11;;;;;;;;;;;;;;;25.92;100.00;99939.72;4993741;28;19922;-71
2023/08/20 03:42:36;;;;;;;;;;;;;;;25.87;100.00;99944.97;4993210;28;19949;-72
2023/08/20 03:45:02;;;;;;;;;;;;;;;25.91;100.00;99946.19;4993629;28;20024;-72
2023/08/20 03:47:28;;;;;;;;;;;;;;;25.87;100.00;99944.97;4993228;28;19921;-73
2023/08/20 03:49:54;;;;;;;;;;;;;;;25.85;100.00;99941.69;4993083;28;20008;-72
2023/08/20 03:52:20;;;;;;;;;;;;;;;25.89;100.00;99942.88;4993523;28;20370;-73
2023/08/20 03:54:45;;;;;;;;;;;;;;;25.85;100.00;99952.50;4994578;28;19925;-70
2023/08/20 03:57:11;;;;;;;;;;;;;;;25.87;100.00;99944.97;4994898;28;19932;-72
2023/08/20 03:59:36;;;;;;;;;;;;;;;25.87;100.00;99950.38;4993254;28;19922;-72
2023/08/20 04:02:02;;;;;;;;;;;;;;;25.78;100.00;99944.50;4994850;28;19922;-72
2023/08/20 04:04:27;;;;;;;;;;;;;;;25.76;100.00;99948.47;4994323;28;19929;-72
2023/08/20 04:06:53;;;;;;;;;;;;;;;25.76;100.00;99948.47;5013641;28;19929;-72
2023/08/20 04:09:18;;;;;;;;;;;;;;;25.78;100.00;99946.38;4996754;28;19929;-72
2023/08/20 04:11:44;;;;;;;;;;;;;;;25.76;100.00;99951.19;5014046;28;19986;-71
2023/08/20 04:14:09;;;;;;;;;;;;;;;25.77;100.00;99950.13;5014164;28;19929;-71
2023/08/20 04:16:36;;;;;;;;;;;;;;;25.73;100.00;99943.56;4996074;28;19922;-73
2023/08/20 04:19:02;;;;;;;;;;;;;;;25.75;100.00;99952.22;4996463;28;19917;-72
2023/08/20 04:21:28;;;;;;;;;;;;;;;25.74;100.00;99953.31;4995532;28;19921;-72
2023/08/20 04:23:53;;;;;;;;;;;;;;;25.72;100.00;99950.84;5013840;28;19940;-72
2023/08/20 04:26:19;;;;;;;;;;;;;;;25.61;100.00;99946.22;5014048;28;20064;-72
2023/08/20 04:28:44;;;;;;;;;;;;;;;25.56;100.00;99952.34;4995958;28;20027;-73
2023/08/20 04:31:09;;;;;;;;;;;;;;;25.49;100.00;99954.28;5013887;28;19917;-72
2023/08/20 04:33:55;;;;;;;;;;;;;;;25.51;100.00;99960.25;5010626;28;19929;-72
2023/08/20 04:36:28;;;;;;;;;;;;;;;25.52;100.00;99969.19;4995312;28;19949;-72
2023/08/20 04:38:53;;;;;;;;;;;;;;;25.52;100.00;99975.41;5004221;28;20378;-73
2023/08/20 04:41:20;;;;;;;;;;;;;;;25.45;100.00;99966.56;4995996;28;19922;-72
2023/08/20 04:43:45;;;;;;;;;;;;;;;25.43;100.00;99976.81;5013196;28;19925;-73
2023/08/20 04:46:11;;;;;;;;;;;;;;;25.37;100.00;99977.72;5004239;28;19976;-74
2023/08/20 04:48:36;;;;;;;;;;;;;;;25.21;100.00;99972.94;4995750;28;19921;-73
2023/08/20 04:51:02;;;;;;;;;;;;;;;25.20;100.00;99971.31;5003971;28;19925;-73
2023/08/20 04:53:27;;;;;;;;;;;;;;;25.05;100.00;99984.34;4995269;28;19928;-73
2023/08/20 04:55:53;;;;;;;;;;;;;;;25.02;100.00;99985.66;5003848;28;19921;-73
2023/08/20 04:58:18;;;;;;;;;;;;;;;25.07;100.00;99990.34;4995882;28;19945;-72
2023/08/20 05:00:44;;;;;;;;;;;;;;;25.08;100.00;99994.72;4995278;28;19967;-73
2023/08/20 05:03:12;;;;;;;;;;;;;;;25.11;100.00;99988.84;5003870;28;19941;-73
2023/08/20 05:05:38;;;;;;;;;;;;;;;25.07;100.00;100003.88;4991628;28;20401;-73
2023/08/20 05:08:03;;;;;;;;;;;;;;;24.97;100.00;99999.00;4992427;28;20289;-72
2023/08/20 05:10:29;;;;;;;;;;;;;;;24.97;100.00;99998.16;4993141;28;19957;-73
2023/08/20 05:12:55;;;;;;;;;;;;;;;25.01;100.00;100004.75;4993391;28;19957;-73
2023/08/20 05:15:22;;;;;;;;;;;;;;;25.08;100.00;100006.34;4992173;28;19933;-73
2023/08/20 05:17:47;;;;;;;;;;;;;;;25.04;100.00;100001.59;4991922;28;20351;-73
2023/08/20 05:20:13;;;;;;;;;;;;;;;24.87;100.00;100004.88;4993166;28;19960;-73
2023/08/20 05:22:38;;;;;;;;;;;;;;;24.71;100.00;100010.88;4991449;28;20374;-74
2023/08/20 05:25:04;;;;;;;;;;;;;;;24.67;100.00;100012.38;4993117;28;19922;-73
2023/08/20 05:27:29;;;;;;;;;;;;;;;24.73;100.00;100014.19;4991430;28;19922;-72
2023/08/20 05:29:56;;;;;;;;;;;;;;;24.80;100.00;100019.47;4991848;28;19984;-73
2023/08/20 05:32:21;;;;;;;;;;;;;;;24.84;100.00;100016.13;4991984;28;19965;-74
2023/08/20 05:34:47;;;;;;;;;;;;;;;24.91;100.00;100021.50;4992744;28;19961;-73
2023/08/20 05:37:12;;;;;;;;;;;;;;;25.02;100.00;100028.03;4992775;28;20012;-73
2023/08/20 05:39:40;;;;;;;;;;;;;;;24.98;100.00;100026.78;4992394;28;19968;-72
2023/08/20 05:42:06;;;;;;;;;;;;;;;24.88;100.00;100033.56;4991531;28;20064;-72
2023/08/20 05:44:32;;;;;;;;;;;;;;;24.75;100.00;100033.66;4992494;28;19968;-71
2023/08/20 05:46:57;;;;;;;;;;;;;;;24.73;100.00;100029.53;4993090;28;20013;-72
2023/08/20 05:49:24;;;;;;;;;;;;;;;24.66;100.00;100035.00;4991352;28;19940;-72
2023/08/20 05:51:50;;;;;;;;;;;;;;;24.72;100.00;100039.50;4991188;28;19922;-71
2023/08/20 05:54:16;;;;;;;;;;;;;;;24.80;100.00;100038.38;4991063;28;20017;-72
2023/08/20 05:56:42;;;;;;;;;;;;;;;24.94;100.00;100041.81;4991717;28;20864;-72
2023/08/20 05:59:08;;;;;;;;;;;;;;;25.02;100.00;100044.22;4991315;28;20358;-72
2023/08/20 06:01:33;;;;;;;;;;;;;;;25.07;100.00;100047.06;4990990;28;19928;-72
2023/08/20 06:03:59;;;;;;;;;;;;;;;25.18;100.00;100043.59;4992677;28;20367;-71
2023/08/20 06:06:25;;;;;;;;;;;;;;;25.23;100.00;100038.34;5007093;28;19943;-70
2023/08/20 06:08:50;;;;;;;;;;;;;;;25.26;100.00;100040.63;5012164;28;19921;-72
2023/08/20 06:11:16;;;;;;;;;;;;;;;25.37;100.00;100052.53;5012025;28;20405;-73
2023/08/20 06:13:41;;;;;;;;;;;;;;;25.46;100.00;100041.16;5011600;28;19965;-71
2023/08/20 06:16:07;;;;;;;;;;;;;;;25.51;100.00;100048.59;5011927;28;20003;-72
2023/08/20 06:18:32;;;;;;;;;;;;;;;25.52;100.00;100047.53;4993919;28;19924;-73
2023/08/20 06:20:57;;;;;;;;;;;;;;;25.57;100.00;100048.53;5011529;28;19929;-72
2023/08/20 06:23:23;;;;;;;;;;;;;;;25.61;100.00;100044.34;5011797;28;19918;-72
2023/08/20 06:25:50;;;;;;;;;;;;;;;25.67;100.00;100050.72;5011268;28;19964;-72
2023/08/20 06:28:15;;;;;;;;;;;;;;;25.72;100.00;100050.03;5011526;28;19921;-72
2023/08/20 06:30:40;;;;;;;;;;;;;;;25.73;100.00;100051.69;5008007;28;20286;-72
2023/08/20 06:33:06;;;;;;;;;;;;;;;25.77;100.00;100050.16;5011493;28;20385;-72
2023/08/20 06:35:32;;;;;;;;;;;;;;;25.75;100.00;100050.38;5010935;28;19932;-73
2023/08/20 06:37:57;;;;;;;;;;;;;;;25.84;100.00;100045.47;5011380;28;20004;-74
2023/08/20 06:40:22;;;;;;;;;;;;;;;25.87;100.00;100051.25;5011795;28;19925;-74
2023/08/20 06:42:47;;;;;;;;;;;;;;;25.93;100.00;100052.19;5010727;28;19926;-74
2023/08/20 06:45:13;;;;;;;;;;;;;;;25.99;100.00;100051.28;4993411;28;19928;-75
2023/08/20 06:47:39;;;;;;;;;;;;;;;26.06;100.00;100052.84;5010815;28;19928;-74
2023/08/20 06:50:04;;;;;;;;;;;;;;;26.08;100.00;100060.72;5013275;28;19997;-75
2023/08/20 06:52:30;;;;;;;;;;;;;;;26.13;100.00;100057.31;5012779;28;19926;-74
2023/08/20 06:54:55;;;;;;;;;;;;;;;26.21;100.00;100060.53;5011645;28;19921;-73
2023/08/20 06:57:20;;;;;;;;;;;;;;;26.31;100.00;100059.97;5011360;28;19979;-74
2023/08/20 06:59:45;;;;;;;;;;;;;;;26.38;100.00;100066.94;5010883;28;19926;-74
2023/08/20 07:02:11;;;;;;;;;;;;;;;26.42;100.00;100062.69;5011121;28;19922;-75
2023/08/20 07:04:36;;;;;;;;;;;;;;;26.52;100.00;100061.28;5010773;28;19922;-74
2023/08/20 07:07:04;;;;;;;;;;;;;;;26.57;100.00;100059.50;5007560;28;20297;-76
2023/08/20 07:09:30;;;;;;;;;;;;;;;26.60;100.00;100058.22;5015130;28;19929;-75
2023/08/20 07:11:55;;;;;;;;;;;;;;;26.66;100.00;100062.72;5010823;28;19921;-76
2023/08/20 07:14:20;;;;;;;;;;;;;;;26.74;100.00;100059.66;5010746;28;20360;-73
2023/08/20 07:16:46;;;;;;;;;;;;;;;26.83;100.00;100064.47;5010766;28;19929;-74
2023/08/20 07:19:11;;;;;;;;;;;;;;;26.91;100.00;100066.03;5012098;28;19972;-74
2023/08/20 07:21:36;;;;;;;;;;;;;;;26.99;100.00;100062.94;4994439;28;19932;-76
2023/08/20 07:24:02;;;;;;;;;;;;;;;27.05;100.00;100056.59;5013260;28;20376;-74
2023/08/20 07:26:27;;;;;;;;;;;;;;;27.07;100.00;100064.47;5012356;28;19957;-74
2023/08/20 07:28:59;;;;;;;;;;;;;;;27.08;100.00;100072.38;5015310;28;19925;-74
2023/08/20 07:31:24;;;;;;;;;;;;;;;27.16;100.00;100074.69;5010729;28;19983;-75
2023/08/20 07:33:50;;;;;;;;;;;;;;;27.21;100.00;100076.72;5011298;28;19929;-76
2023/08/20 07:36:16;;;;;;;;;;;;;;;27.21;100.00;100066.72;5010800;28;20341;-75
2023/08/20 07:38:42;;;;;;;;;;;;;;;27.27;100.00;100073.06;5009944;28;20294;-73
2023/08/20 07:41:08;;;;;;;;;;;;;;;27.30;100.00;100076.09;5010293;28;19933;-74
2023/08/20 07:43:33;;;;;;;;;;;;;;;27.40;100.00;100074.66;5010250;28;19925;-74
2023/08/20 07:45:58;;;;;;;;;;;;;;;27.47;100.00;100069.91;5010431;28;20353;-72
2023/08/20 07:48:24;;;;;;;;;;;;;;;27.46;100.00;100079.09;5014453;28;19928;-74
2023/08/20 07:50:49;;;;;;;;;;;;;;;27.46;100.00;100077.22;5009981;28;20759;-73
2023/08/20 07:53:14;;;;;;;;;;;;;;;27.50;100.00;100083.00;5010318;28;20389;-72
2023/08/20 07:55:40;;;;;;;;;;;;;;;27.57;100.00;100086.41;5010311;28;19921;-73
2023/08/20 07:58:05;;;;;;;;;;;;;;;27.65;100.00;100088.75;5010437;28;19921;-74
2023/08/20 08:00:30;;;;;;;;;;;;;;;27.73;100.00;100080.25;5009919;28;19929;-75
2023/08/20 08:02:55;;;;;;;;;;;;;;;27.84;100.00;100086.69;4992849;28;19921;-75
2023/08/20 08:05:21;;;;;;;;;;;;;;;27.91;100.00;100077.34;5010382;28;19925;-75
2023/08/20 08:07:46;;;;;;;;;;;;;;;27.98;100.00;100072.56;4994790;28;20020;-75
2023/08/20 08:10:11;;;;;;;;;;;;;;;28.06;100.00;100074.91;4992747;28;19929;-76
2023/08/20 08:12:37;;;;;;;;;;;;;;;28.15;100.00;100082.69;5012386;28;19921;-76
2023/08/20 08:15:02;;;;;;;;;;;;;;;28.21;100.00;100082.53;5010241;28;19932;-75
2023/08/20 08:17:27;;;;;;;;;;;;;;;28.29;100.00;100084.81;5010804;28;19965;-79
2023/08/20 08:19:57;;;;;;;;;;;;;;;28.35;100.00;100077.56;4992849;28;19929;-75
2023/08/20 08:22:22;;;;;;;;;;;;;;;28.40;100.00;100074.94;5012083;28;19930;-76
2023/08/20 08:24:48;;;;;;;;;;;;;;;28.43;100.00;100083.44;5012052;28;19972;-75
2023/08/20 08:27:13;;;;;;;;;;;;;;;28.47;100.00;100075.59;5018040;28;20274;-75
2023/08/20 08:29:38;;;;;;;;;;;;;;;28.45;100.00;100077.78;5013531;28;20377;-75
2023/08/20 08:32:04;;;;;;;;;;;;;;;28.50;100.00;100075.13;4997359;28;19991;-76
2023/08/20 08:34:29;;;;;;;;;;;;;;;28.50;100.00;100075.13;5013404;28;19928;-74
2023/08/20 08:36:54;;;;;;;;;;;;;;;28.54;100.00;100075.44;5014352;28;19921;-86
2023/08/20 08:39:20;;;;;;;;;;;;;;;28.58;100.00;100066.56;5015431;28;19939;-74
2023/08/20 08:41:46;;;;;;;;;;;;;;;28.63;100.00;100066.63;5014063;28;20357;-74
2023/08/20 08:44:12;;;;;;;;;;;;;;;28.67;100.00;100072.41;5015783;28;20301;-75
2023/08/20 08:46:38;;;;;;;;;;;;;;;28.73;100.00;100069.53;5014630;28;19929;-76
2023/08/20 08:49:04;;;;;;;;;;;;;;;28.74;100.00;100071.19;5013761;28;19929;-75
2023/08/20 08:51:30;;;;;;;;;;;;;;;28.78;100.00;100072.34;5012982;28;19917;-74
2023/08/20 08:53:56;;;;;;;;;;;;;;;28.84;100.00;100070.50;5012891;28;19922;-74
2023/08/20 08:56:21;;;;;;;;;;;;;;;28.87;100.00;100070.81;5013230;28;19925;-76
2023/08/20 08:58:47;;;;;;;;;;;;;;;28.92;100.00;100066.56;5010491;28;19921;-74
2023/08/20 09:01:13;;;;;;;;;;;;;;;28.97;100.00;100070.16;5013429;28;20004;-75
2023/08/20 09:03:38;;;;;;;;;;;;;;;29.03;100.00;100062.91;5012824;28;19921;-73
2023/08/20 09:06:08;;;;;;;;;;;;;;;29.09;100.00;100056.47;5012975;28;20333;-73
2023/08/20 09:08:33;;;;;;;;;;;;;;;29.15;100.00;100061.72;4995317;28;19926;-75
2023/08/20 09:10:59;;;;;;;;;;;;;;;29.21;100.00;100052.56;5013099;28;20440;-73
2023/08/20 09:13:26;;;;;;;;;;;;;;;29.27;100.00;100058.88;5012649;28;19922;-75
2023/08/20 09:15:54;;;;;;;;;;;;;;;29.31;100.00;100054.56;5013201;28;19921;-74
2023/08/20 09:18:20;;;;;;;;;;;;;;;29.36;100.00;100051.94;5011735;28;19928;-75
2023/08/20 09:20:47;;;;;;;;;;;;;;;29.40;100.00;100053.06;5015982;28;19951;-75
2023/08/20 09:23:15;;;;;;;;;;;;;;;29.42;100.00;100050.09;5012836;28;19941;-76
2023/08/20 09:25:41;;;;;;;;;;;;;;;29.47;100.00;100048.25;5013802;28;19922;-74
2023/08/20 09:28:07;;;;;;;;;;;;;;;29.54;100.00;100042.63;5012926;28;19921;-74
2023/08/20 09:30:32;;;;;;;;;;;;;;;29.58;100.00;100033.69;5011571;28;20015;-73
2023/08/20 09:33:10;;;;;;;;;;;;;;;29.62;100.00;100034.84;4994814;28;20364;-74
2023/08/20 09:35:35;;;;;;;;;;;;;;;29.65;100.00;100034.34;5011983;28;20444;-73
2023/08/20 09:38:04;;;;;;;;;;;;;;;29.70;100.00;100034.38;5013682;28;19925;-74
2023/08/20 09:40:30;;;;;;;;;;;;;;;29.75;100.00;100035.53;5014862;28;19925;-76
2023/08/20 09:42:56;;;;;;;;;;;;;;;29.81;100.00;100037.22;5015836;28;19975;-76
2023/08/20 09:45:21;;;;;;;;;;;;;;;29.83;100.00;100037.78;5012557;28;19932;-76
2023/08/20 09:47:48;;;;;;;;;;;;;;;29.89;100.00;100029.41;5012237;28;20004;-77
2023/08/20 09:50:17;;;;;;;;;;;;;;;29.92;100.00;100033.56;5011891;28;19921;-76
2023/08/20 09:52:46;;;;;;;;;;;;;;;29.97;100.00;100030.88;5011578;28;20020;-74
2023/08/20 09:55:20;;;;;;;;;;;;;;;30.02;100.00;100034.47;5012219;28;20008;-74
2023/08/20 09:57:47;;;;;;;;;;;;;;;30.05;100.00;100027.66;5016121;28;19933;-74
2023/08/20 10:00:13;;;;;;;;;;;;;;;30.09;100.00;100028.81;5012258;28;20017;-73
2023/08/20 10:02:41;;;;;;;;;;;;;;;30.15;100.00;100021.50;5012121;28;19948;-75
2023/08/20 10:05:07;;;;;;;;;;;;;;;30.22;100.00;100022.13;5011836;28;20267;-77
2023/08/20 10:07:33;;;;;;;;;;;;;;;30.33;100.00;100019.22;5011379;28;20246;-74
2023/08/20 10:10:01;;;;;;;;;;;;;;;30.48;100.00;100019.34;5011959;28;19922;-75
2023/08/20 10:12:27;;;;;;;;;;;;;;;30.68;100.00;100015.13;5011799;28;19925;-75
2023/08/20 10:14:53;;;;;;;;;;;;;;;30.85;100.00;100019.31;5009766;28;19936;-73
2023/08/20 10:17:18;;;;;;;;;;;;;;;30.92;100.00;100021.78;5010357;28;19925;-72
2023/08/20 10:19:44;;;;;;;;;;;;;;;31.08;100.00;100015.34;5009174;28;20060;-73
2023/08/20 10:22:09;;;;;;;;;;;;;;;31.24;100.00;100008.03;5010631;28;19921;-72
2023/08/20 10:24:42;;;;;;;;;;;;;;;31.28;100.00;100012.69;5011438;28;20297;-71
2023/08/20 10:27:10;;;;;;;;;;;;;;;31.28;98.81;100004.50;5012183;28;19928;-72
2023/08/20 10:29:42;;;;;;;;;;;;;;;31.25;98.98;100005.06;5010379;28;20000;-72
2023/08/20 10:32:13;;;;;;;;;;;;;;;31.30;98.71;100002.34;5012232;28;19926;-73
2023/08/20 10:34:42;;;;;;;;;;;;;;;31.35;97.65;100003.44;5010524;28;20364;-73
2023/08/20 10:37:12;;;;;;;;;;;;;;;31.44;94.56;100002.66;5015291;28;19921;-74
2023/08/20 10:39:38;;;;;;;;;;;;;;;31.49;95.21;99996.41;4992795;28;19921;-72
2023/08/20 10:42:15;;;;;;;;;;;;;;;31.52;95.24;99993.13;5011463;28;19925;-72
2023/08/20 10:44:59;;;;;;;;;;;;;;;31.53;95.53;99989.31;5011340;28;19921;-72
2023/08/20 10:47:27;;;;;;;;;;;;;;;31.57;92.95;99987.69;5009846;28;19922;-74
2023/08/20 10:49:53;;;;;;;;;;;;;;;31.60;94.15;99979.00;5011662;28;20092;-73
2023/08/20 10:52:28;;;;;;;;;;;;;;;31.72;92.87;99976.84;4993852;28;19928;-72
2023/08/20 10:54:55;;;;;;;;;;;;;;;31.77;92.04;99978.75;4993609;28;19980;-73
2023/08/20 10:57:21;;;;;;;;;;;;;;;31.84;92.26;99980.13;5011660;28;19961;-74
2023/08/20 10:59:56;;;;;;;;;;;;;;;31.99;90.11;99977.38;5010284;28;20026;-73
2023/08/20 11:02:23;;;;;;;;;;;;;;;32.05;89.72;99979.03;5008091;28;19929;-74
2023/08/20 11:04:48;;;;;;;;;;;;;;;32.12;89.67;99976.03;5007349;28;19931;-74
2023/08/20 11:07:17;;;;;;;;;;;;;;;32.28;87.86;99974.94;5006195;28;19922;-74
2023/08/20 11:09:44;;;;;;;;;;;;;;;32.29;87.72;99970.28;5009674;28;19937;-75
2023/08/20 11:12:10;;;;;;;;;;;;;;;32.33;87.14;99963.22;5011198;28;19925;-72
2023/08/20 11:14:35;;;;;;;;;;;;;;;32.37;87.00;99962.38;5014079;28;19921;-72
2023/08/20 11:17:01;;;;;;;;;;;;;;;32.35;87.64;99959.09;5010630;28;19947;-73
2023/08/20 11:19:26;;;;;;;;;;;;;;;32.35;87.29;99955.53;5011045;28;19917;-75
2023/08/20 11:21:51;;;;;;;;;;;;;;;32.39;87.45;99953.91;5010193;28;19929;-73
2023/08/20 11:24:20;;;;;;;;;;;;;;;32.44;86.54;99949.25;5011050;28;20000;-75
2023/08/20 11:26:46;;;;;;;;;;;;;;;32.53;86.06;99949.50;5009913;28;19940;-74
2023/08/20 11:29:12;;;;;;;;;;;;;;;32.54;84.59;99951.13;5011004;28;20000;-74
2023/08/20 11:31:38;;;;;;;;;;;;;;;32.55;84.70;99941.84;5010926;28;19924;-74
2023/08/20 11:34:03;;;;;;;;;;;;;;;32.57;84.67;99939.66;5013949;28;20008;-74
2023/08/20 11:36:29;;;;;;;;;;;;;;;32.58;84.74;99940.44;5010836;28;19926;-73
2023/08/20 11:38:54;;;;;;;;;;;;;;;32.64;82.63;99936.63;5010634;28;19941;-73
2023/08/20 11:41:21;;;;;;;;;;;;;;;32.66;82.99;99932.56;5010621;28;20019;-74
2023/08/20 11:43:49;;;;;;;;;;;;;;;32.70;83.45;99933.63;5010706;28;19932;-73
2023/08/20 11:46:15;;;;;;;;;;;;;;;32.74;81.90;99929.25;5011045;28;19928;-73
2023/08/20 11:49:06;;;;;;;;;;;;;;;32.77;83.43;99928.69;5010747;28;20382;-74
2023/08/20 11:51:37;;;;;;;;;;;;;;;32.97;80.86;99921.50;5012166;28;19925;-73
2023/08/20 11:54:07;;;;;;;;;;;;;;;33.05;80.84;99912.72;5012495;28;19987;-76
2023/08/20 11:56:33;;;;;;;;;;;;;;;33.12;80.35;99905.81;5012826;28;19936;-72
2023/08/20 11:59:00;;;;;;;;;;;;;;;33.22;78.98;99905.00;5009331;28;19964;-75
2023/08/20 12:01:25;;;;;;;;;;;;;;;33.33;77.21;99901.09;5012037;28;19922;-74
2023/08/20 12:03:51;;;;;;;;;;;;;;;33.44;77.05;99901.81;5012015;28;19967;-73
2023/08/20 12:06:21;;;;;;;;;;;;;;;33.57;76.79;99899.25;5014787;28;19975;-74
2023/08/20 12:08:46;;;;;;;;;;;;;;;33.74;75.98;99892.59;4996889;28;20301;-74
2023/08/20 12:11:12;;;;;;;;;;;;;;;33.94;74.48;99897.84;5017903;28;19922;-73
2023/08/20 12:13:38;;;;;;;;;;;;;;;34.18;72.24;99892.41;5011736;28;20581;-74
2023/08/20 12:16:03;;;;;;;;;;;;;;;34.32;72.02;99893.41;5007548;28;19925;-73
2023/08/20 12:18:29;;;;;;;;;;;;;;;34.43;71.03;99901.22;5013852;28;19925;-75
2023/08/20 12:20:55;;;;;;;;;;;;;;;34.58;69.79;99894.72;5014263;28;20067;-75
2023/08/20 12:23:20;;;;;;;;;;;;;;;34.76;69.03;99893.16;5012389;28;20024;-75
2023/08/20 12:25:49;;;;;;;;;;;;;;;34.92;67.52;99894.63;5011051;28;19932;-74
2023/08/20 12:28:14;;;;;;;;;;;;;;;35.07;67.32;99888.91;5011995;28;19925;-74